createdAt,value
2023-05-17T00:01:49.826Z,100.00
2023-05-17T00:04:16.835Z,100.00
2023-05-17T00:06:43.815Z,99.93
2023-05-17T00:09:10.427Z,100.00
2023-05-17T00:11:36.978Z,100.00
2023-05-17T00:14:03.665Z,100.00
2023-05-17T00:16:30.237Z,100.00
2023-05-17T00:18:56.842Z,100.00
2023-05-17T00:21:23.401Z,100.00
2023-05-17T00:23:49.897Z,100.00
2023-05-17T00:26:16.399Z,100.00
2023-05-17T00:28:43.332Z,100.00
2023-05-17T00:31:09.850Z,100.00
2023-05-17T00:33:36.381Z,100.00
2023-05-17T00:36:03.576Z,100.00
2023-05-17T00:38:30.071Z,100.00
2023-05-17T00:40:56.546Z,100.00
2023-05-17T00:43:23.755Z,100.00
2023-05-17T00:45:51.751Z,100.00
2023-05-17T00:48:21.228Z,100.00
2023-05-17T00:50:48.349Z,100.00
2023-05-17T00:53:16.314Z,100.00
2023-05-17T00:55:44.262Z,100.00
2023-05-17T00:58:14.489Z,100.00
2023-05-17T01:00:41.909Z,100.00
2023-05-17T01:03:08.558Z,100.00
2023-05-17T01:05:35.424Z,100.00
2023-05-17T01:08:02.768Z,100.00
2023-05-17T01:11:01.648Z,100.00
2023-05-17T01:13:52.024Z,100.00
2023-05-17T01:16:36.759Z,100.00
2023-05-17T01:19:42.014Z,100.00
2023-05-17T01:22:26.560Z,100.00
2023-05-17T01:25:24.635Z,100.00
2023-05-17T01:27:54.303Z,100.00
2023-05-17T01:30:21.978Z,100.00
2023-05-17T01:32:48.577Z,100.00
2023-05-17T01:35:15.272Z,100.00
2023-05-17T01:37:42.028Z,100.00
2023-05-17T01:40:09.445Z,100.00
2023-05-17T01:42:40.352Z,100.00
2023-05-17T01:45:10.349Z,100.00
2023-05-17T01:47:47.924Z,100.00
2023-05-17T01:50:17.581Z,100.00
2023-05-17T01:52:54.000Z,100.00
2023-05-17T01:55:48.938Z,100.00
2023-05-17T01:58:16.283Z,100.00
2023-05-17T02:00:46.449Z,100.00
2023-05-17T02:03:17.500Z,100.00
2023-05-17T02:05:43.985Z,100.00
2023-05-17T02:08:10.788Z,100.00
2023-05-17T02:10:37.351Z,100.00
2023-05-17T02:13:04.050Z,100.00
2023-05-17T02:15:30.996Z,100.00
2023-05-17T02:17:59.176Z,100.00
2023-05-17T02:20:25.788Z,100.00
2023-05-17T02:22:52.216Z,100.00
2023-05-17T02:25:18.790Z,100.00
2023-05-17T02:27:45.390Z,100.00
2023-05-17T02:30:15.689Z,100.00
2023-05-17T02:32:43.692Z,100.00
2023-05-17T02:35:10.291Z,100.00
2023-05-17T02:37:36.789Z,100.00
2023-05-17T02:40:08.581Z,100.00
2023-05-17T02:42:38.245Z,100.00
2023-05-17T02:45:05.267Z,100.00
2023-05-17T02:47:32.138Z,100.00
2023-05-17T02:49:58.657Z,100.00
2023-05-17T02:52:25.180Z,100.00
2023-05-17T02:54:51.834Z,100.00
2023-05-17T02:57:18.541Z,100.00
2023-05-17T02:59:45.092Z,100.00
2023-05-17T03:02:12.401Z,100.00
2023-05-17T03:04:39.007Z,100.00
2023-05-17T03:07:07.256Z,100.00
2023-05-17T03:09:34.581Z,100.00
2023-05-17T03:12:01.791Z,100.00
2023-05-17T03:14:31.232Z,100.00
2023-05-17T03:16:57.761Z,100.00
2023-05-17T03:19:24.282Z,100.00
2023-05-17T03:21:51.789Z,100.00
2023-05-17T03:24:18.820Z,100.00
2023-05-17T03:26:45.343Z,100.00
2023-05-17T03:29:12.816Z,100.00
2023-05-17T03:31:41.919Z,100.00
2023-05-17T03:34:08.432Z,100.00
2023-05-17T03:36:35.631Z,100.00
2023-05-17T03:39:02.012Z,100.00
2023-05-17T03:41:29.211Z,100.00
2023-05-17T03:43:55.746Z,100.00
2023-05-17T03:46:22.373Z,100.00
2023-05-17T03:48:49.317Z,100.00
2023-05-17T03:51:16.801Z,100.00
2023-05-17T03:53:43.902Z,100.00
2023-05-17T03:56:10.836Z,100.00
2023-05-17T03:58:38.021Z,100.00
2023-05-17T04:01:05.432Z,100.00
2023-05-17T04:03:32.857Z,100.00
2023-05-17T04:06:06.965Z,100.00
2023-05-17T04:08:35.502Z,100.00
2023-05-17T04:11:10.485Z,100.00
2023-05-17T04:13:40.461Z,100.00
2023-05-17T04:16:08.450Z,100.00
2023-05-17T04:18:37.109Z,100.00
2023-05-17T04:21:05.069Z,100.00
2023-05-17T04:23:34.196Z,100.00
2023-05-17T04:26:01.647Z,100.00
2023-05-17T04:28:29.794Z,100.00
2023-05-17T04:30:56.622Z,100.00
2023-05-17T04:33:24.269Z,100.00
2023-05-17T04:35:54.428Z,100.00
2023-05-17T04:38:21.711Z,100.00
2023-05-17T04:40:48.433Z,100.00
2023-05-17T04:43:15.412Z,100.00
2023-05-17T04:45:42.888Z,100.00
2023-05-17T04:48:09.886Z,100.00
2023-05-17T04:50:36.572Z,100.00
2023-05-17T04:53:04.080Z,100.00
2023-05-17T04:55:35.811Z,100.00
2023-05-17T04:58:02.511Z,100.00
2023-05-17T05:00:30.049Z,100.00
2023-05-17T05:03:02.334Z,100.00
2023-05-17T05:05:29.164Z,100.00
2023-05-17T05:07:56.204Z,100.00
2023-05-17T05:10:22.853Z,100.00
2023-05-17T05:12:49.714Z,100.00
2023-05-17T05:15:16.367Z,100.00
2023-05-17T05:17:49.649Z,100.00
2023-05-17T05:20:16.687Z,100.00
2023-05-17T05:22:43.488Z,100.00
2023-05-17T05:25:11.336Z,100.00
2023-05-17T05:27:37.978Z,100.00
2023-05-17T05:30:05.036Z,100.00
2023-05-17T05:32:31.678Z,100.00
2023-05-17T05:34:58.223Z,100.00
2023-05-17T05:37:25.871Z,100.00
2023-05-17T05:39:53.263Z,100.00
2023-05-17T05:42:19.886Z,100.00
2023-05-17T05:44:46.334Z,100.00
2023-05-17T05:47:13.454Z,97.55
2023-05-17T05:49:39.930Z,95.88
2023-05-17T05:52:06.486Z,94.79
2023-05-17T05:54:33.181Z,93.15
2023-05-17T05:57:00.737Z,92.08
2023-05-17T05:59:27.833Z,91.90
2023-05-17T06:01:56.448Z,91.88
2023-05-17T06:04:32.819Z,91.68
2023-05-17T06:07:07.797Z,89.80
2023-05-17T06:09:34.414Z,89.99
2023-05-17T06:12:01.236Z,88.32
2023-05-17T06:14:27.667Z,88.75
2023-05-17T06:16:54.151Z,88.28
2023-05-17T06:19:20.909Z,87.96
2023-05-17T06:21:47.568Z,88.05
2023-05-17T06:24:14.098Z,87.94
2023-05-17T06:26:40.985Z,88.46
2023-05-17T06:29:07.452Z,86.89
2023-05-17T06:31:34.150Z,85.92
2023-05-17T06:34:00.754Z,86.15
2023-05-17T06:36:27.546Z,86.14
2023-05-17T06:38:54.031Z,86.27
2023-05-17T06:41:26.020Z,85.33
2023-05-17T06:43:52.492Z,84.98
2023-05-17T06:46:19.178Z,84.00
2023-05-17T06:48:47.421Z,83.72
2023-05-17T06:51:15.890Z,84.33
2023-05-17T06:53:42.494Z,84.38
2023-05-17T06:56:09.006Z,84.97
2023-05-17T06:58:35.670Z,85.98
2023-05-17T07:01:02.252Z,83.20
2023-05-17T07:03:29.118Z,84.74
2023-05-17T07:05:55.834Z,84.63
2023-05-17T07:08:22.340Z,82.25
2023-05-17T07:10:52.101Z,80.50
2023-05-17T07:13:19.027Z,79.40
2023-05-17T07:15:45.976Z,79.73
2023-05-17T07:18:12.609Z,79.34
2023-05-17T07:20:39.136Z,77.55
2023-05-17T07:23:05.990Z,77.59
2023-05-17T07:25:32.494Z,77.96
2023-05-17T07:27:59.122Z,78.86
2023-05-17T07:30:25.639Z,79.81
2023-05-17T07:32:52.222Z,79.08
2023-05-17T07:35:20.337Z,78.40
2023-05-17T07:37:48.219Z,78.87
2023-05-17T07:40:14.788Z,78.98
2023-05-17T07:42:41.281Z,78.34
2023-05-17T07:45:08.664Z,78.54
2023-05-17T07:47:35.221Z,77.60
2023-05-17T07:50:01.773Z,77.52
2023-05-17T07:52:28.212Z,78.29
2023-05-17T07:54:57.042Z,80.29
2023-05-17T07:57:23.660Z,80.74
2023-05-17T07:59:50.099Z,79.33
2023-05-17T08:02:16.575Z,79.14
2023-05-17T08:04:45.515Z,78.12
2023-05-17T08:07:12.060Z,77.94
2023-05-17T08:09:40.170Z,76.69
2023-05-17T08:12:06.801Z,76.29
2023-05-17T08:14:33.249Z,76.96
2023-05-17T08:16:59.711Z,76.61
2023-05-17T08:19:26.673Z,75.27
2023-05-17T08:21:53.315Z,73.74
2023-05-17T08:24:19.906Z,73.69
2023-05-17T08:26:46.430Z,73.78
2023-05-17T08:29:13.045Z,74.33
2023-05-17T08:31:39.585Z,72.57
2023-05-17T08:34:06.393Z,70.82
2023-05-17T08:36:32.962Z,70.27
2023-05-17T08:38:59.548Z,67.90
2023-05-17T08:41:26.180Z,68.45
2023-05-17T08:43:54.148Z,69.27
2023-05-17T08:46:21.964Z,70.54
2023-05-17T08:48:53.122Z,70.46
2023-05-17T08:51:20.829Z,68.17
2023-05-17T08:53:48.229Z,67.47
2023-05-17T08:56:18.559Z,66.69
2023-05-17T09:01:19.067Z,63.71
2023-05-17T09:03:49.574Z,62.52
2023-05-17T09:06:20.301Z,63.66
2023-05-17T09:08:47.447Z,62.89
2023-05-17T09:11:24.672Z,62.76
2023-05-17T09:13:51.558Z,61.98
2023-05-17T09:16:20.190Z,62.54
2023-05-17T09:18:57.560Z,61.30
2023-05-17T09:21:25.304Z,60.52
2023-05-17T09:24:04.854Z,61.59
2023-05-17T09:26:44.444Z,60.38
2023-05-17T09:29:13.031Z,60.00
2023-05-17T09:31:43.922Z,59.59
2023-05-17T09:34:11.038Z,59.17
2023-05-17T09:36:42.051Z,58.07
2023-05-17T09:39:13.592Z,58.51
2023-05-17T09:41:46.724Z,58.09
2023-05-17T09:44:14.578Z,58.13
2023-05-17T09:46:46.111Z,58.71
2023-05-17T09:49:13.298Z,58.19
2023-05-17T09:51:42.466Z,58.86
2023-05-17T09:54:10.453Z,60.34
2023-05-17T09:56:37.434Z,59.59
2023-05-17T09:59:10.855Z,56.80
2023-05-17T10:01:44.928Z,57.70
2023-05-17T10:04:12.638Z,59.88
2023-05-17T10:09:14.054Z,61.36
2023-05-17T10:11:43.061Z,62.33
2023-05-17T10:14:33.619Z,58.79
2023-05-17T10:17:02.427Z,59.89
2023-05-17T10:19:29.214Z,60.41
2023-05-17T10:22:05.124Z,59.80
2023-05-17T10:24:46.484Z,59.85
2023-05-17T10:27:13.294Z,58.85
2023-05-17T10:29:41.576Z,59.14
2023-05-17T10:32:09.102Z,59.80
2023-05-17T10:34:37.623Z,60.39
2023-05-17T10:37:05.521Z,61.33
2023-05-17T10:39:34.957Z,61.78
2023-05-17T10:42:14.418Z,60.43
2023-05-17T10:44:42.725Z,61.00
2023-05-17T10:47:11.149Z,60.84
2023-05-17T10:49:43.032Z,59.44
2023-05-17T10:52:16.722Z,60.19
2023-05-17T10:54:45.598Z,59.56
2023-05-17T11:00:09.036Z,57.93
2023-05-17T11:02:42.445Z,58.01
2023-05-17T11:05:23.713Z,59.80
2023-05-17T11:07:50.607Z,61.44
2023-05-17T11:10:17.843Z,60.76
2023-05-17T11:12:46.993Z,60.74
2023-05-17T11:15:15.220Z,59.99
2023-05-17T11:17:44.847Z,60.67
2023-05-17T11:20:14.840Z,61.35
2023-05-17T11:22:55.199Z,58.77
2023-05-17T11:25:22.258Z,58.01
2023-05-17T11:27:51.526Z,57.51
2023-05-17T11:30:23.143Z,56.88
2023-05-17T11:32:51.556Z,55.15
2023-05-17T11:35:19.440Z,53.63
2023-05-17T11:37:46.299Z,52.35
2023-05-17T11:40:13.419Z,51.78
2023-05-17T11:42:40.035Z,52.06
2023-05-17T11:45:07.192Z,52.93
2023-05-17T11:47:35.257Z,52.15
2023-05-17T11:50:03.927Z,53.88
2023-05-17T11:52:31.764Z,53.90
2023-05-17T11:54:59.055Z,53.05
2023-05-17T11:57:32.460Z,53.68
2023-05-17T12:00:05.371Z,54.98
2023-05-17T12:02:40.720Z,54.98
2023-05-17T12:05:09.342Z,56.68
2023-05-17T12:07:37.349Z,54.31
2023-05-17T12:10:05.753Z,53.41
2023-05-17T12:12:32.508Z,55.47
2023-05-17T12:14:59.583Z,56.45
2023-05-17T12:17:35.412Z,56.72
2023-05-17T12:20:08.952Z,55.96
2023-05-17T12:22:52.238Z,55.39
2023-05-17T12:25:19.770Z,55.44
2023-05-17T12:27:46.285Z,54.79
2023-05-17T12:30:16.366Z,56.83
2023-05-17T12:32:43.702Z,55.71
2023-05-17T12:35:12.025Z,55.88
2023-05-17T12:37:39.055Z,55.68
2023-05-17T12:40:06.862Z,56.79
2023-05-17T12:42:33.446Z,56.23
2023-05-17T12:45:00.637Z,55.46
2023-05-17T12:47:33.454Z,55.02
2023-05-17T12:50:00.486Z,54.56
2023-05-17T12:52:33.734Z,54.65
2023-05-17T12:55:03.065Z,54.60
2023-05-17T12:57:31.576Z,55.37
2023-05-17T12:59:58.037Z,55.75
2023-05-17T13:02:24.810Z,56.08
2023-05-17T13:04:51.407Z,57.19
2023-05-17T13:07:23.791Z,56.48
2023-05-17T13:09:50.620Z,56.91
2023-05-17T13:12:24.427Z,56.97
2023-05-17T13:14:53.684Z,58.40
2023-05-17T13:17:35.145Z,58.99
2023-05-17T13:20:02.018Z,59.60
2023-05-17T13:22:28.851Z,58.21
2023-05-17T13:24:55.762Z,59.42
2023-05-17T13:27:22.231Z,56.86
2023-05-17T13:29:48.722Z,57.54
2023-05-17T13:32:15.599Z,54.88
2023-05-17T13:34:42.349Z,54.72
2023-05-17T13:37:11.961Z,53.83
2023-05-17T13:39:39.323Z,52.85
2023-05-17T13:42:06.147Z,52.46
2023-05-17T13:44:32.874Z,53.63
2023-05-17T13:46:59.458Z,52.01
2023-05-17T13:49:26.629Z,51.79
2023-05-17T13:51:53.186Z,51.76
2023-05-17T13:54:20.767Z,51.25
2023-05-17T13:56:48.570Z,51.52
2023-05-17T13:59:15.133Z,51.09
2023-05-17T14:01:42.005Z,52.71
2023-05-17T14:04:08.712Z,52.64
2023-05-17T14:06:35.186Z,53.58
2023-05-17T14:09:01.726Z,53.12
2023-05-17T14:11:28.195Z,52.43
2023-05-17T14:13:54.925Z,52.90
2023-05-17T14:16:22.798Z,53.18
2023-05-17T14:18:49.944Z,54.07
2023-05-17T14:21:16.679Z,54.65
2023-05-17T14:23:43.235Z,54.37
2023-05-17T14:26:09.919Z,54.61
2023-05-17T14:28:38.032Z,55.24
2023-05-17T14:31:08.707Z,54.28
2023-05-17T14:33:35.665Z,54.19
2023-05-17T14:36:03.908Z,54.81
2023-05-17T14:38:30.529Z,55.32
2023-05-17T14:40:58.091Z,55.70
2023-05-17T14:43:24.885Z,55.17
2023-05-17T14:45:53.614Z,55.44
2023-05-17T14:48:20.235Z,55.76
2023-05-17T14:50:46.765Z,55.13
2023-05-17T14:53:13.345Z,54.97
2023-05-17T14:55:40.332Z,55.35
2023-05-17T14:58:07.002Z,54.04
2023-05-17T15:00:34.644Z,52.61
2023-05-17T15:03:01.468Z,52.06
2023-05-17T15:05:29.006Z,51.40
2023-05-17T15:07:55.978Z,50.36
2023-05-17T15:10:22.923Z,50.29
2023-05-17T15:12:49.808Z,46.93
2023-05-17T15:15:16.532Z,45.37
2023-05-17T15:17:43.061Z,44.72
2023-05-17T15:20:10.676Z,44.17
2023-05-17T15:22:37.606Z,43.08
2023-05-17T15:25:05.449Z,42.82
2023-05-17T15:27:31.976Z,45.24
2023-05-17T15:29:58.556Z,46.78
2023-05-17T15:32:25.091Z,46.85
2023-05-17T15:34:52.524Z,45.47
2023-05-17T15:37:19.041Z,43.24
2023-05-17T15:39:45.519Z,41.56
2023-05-17T15:42:12.027Z,42.16
2023-05-17T15:44:38.510Z,41.29
2023-05-17T15:47:05.023Z,41.95
2023-05-17T15:49:31.577Z,44.94
2023-05-17T15:51:58.090Z,45.14
2023-05-17T15:54:24.667Z,45.43
2023-05-17T15:56:51.183Z,46.08
2023-05-17T15:59:17.695Z,45.79
2023-05-17T16:01:46.305Z,43.36
2023-05-17T16:04:13.505Z,42.00
2023-05-17T16:06:40.356Z,37.57
2023-05-17T16:09:07.285Z,36.80
2023-05-17T16:11:33.789Z,35.43
2023-05-17T16:14:00.400Z,37.82
2023-05-17T16:16:26.942Z,37.85
2023-05-17T16:18:53.633Z,38.97
2023-05-17T16:21:20.297Z,43.24
2023-05-17T16:23:46.809Z,44.37
2023-05-17T16:26:13.272Z,46.04
2023-05-17T16:28:40.059Z,45.26
2023-05-17T16:31:06.701Z,43.81
2023-05-17T16:33:34.585Z,45.77
2023-05-17T16:36:04.313Z,47.33
2023-05-17T16:38:31.212Z,48.49
2023-05-17T16:40:57.758Z,48.07
2023-05-17T16:43:24.298Z,48.25
2023-05-17T16:45:52.928Z,47.58
2023-05-17T16:48:19.422Z,47.84
2023-05-17T16:50:46.050Z,46.83
2023-05-17T16:53:12.632Z,45.24
2023-05-17T16:55:39.148Z,44.63
2023-05-17T16:58:06.004Z,44.74
2023-05-17T17:00:32.735Z,46.25
2023-05-17T17:02:59.860Z,45.45
2023-05-17T17:05:27.692Z,44.41
2023-05-17T17:07:54.930Z,44.76
2023-05-17T17:10:21.540Z,45.68
2023-05-17T17:12:49.710Z,46.62
2023-05-17T17:15:16.225Z,48.09
2023-05-17T17:17:43.205Z,48.33
2023-05-17T17:20:10.477Z,49.38
2023-05-17T17:22:37.042Z,50.71
2023-05-17T17:25:03.713Z,50.14
2023-05-17T17:27:30.558Z,50.62
2023-05-17T17:29:57.093Z,50.74
2023-05-17T17:32:23.674Z,51.13
2023-05-17T17:34:50.432Z,51.20
2023-05-17T17:37:16.946Z,51.40
2023-05-17T17:39:43.560Z,51.68
2023-05-17T17:42:10.680Z,52.19
2023-05-17T17:44:37.298Z,52.35
2023-05-17T17:47:03.942Z,52.56
2023-05-17T17:49:30.482Z,52.47
2023-05-17T17:51:58.155Z,52.86
2023-05-17T17:54:24.887Z,53.49
2023-05-17T17:56:51.811Z,53.91
2023-05-17T17:59:18.307Z,54.15
2023-05-17T18:01:44.941Z,54.33
2023-05-17T18:04:13.377Z,55.08
2023-05-17T18:06:41.766Z,55.60
2023-05-17T18:09:08.646Z,56.06
2023-05-17T18:11:35.290Z,55.81
2023-05-17T18:14:02.528Z,56.22
2023-05-17T18:16:29.330Z,55.59
2023-05-17T18:18:56.243Z,56.12
2023-05-17T18:21:22.993Z,58.74
2023-05-17T18:23:49.500Z,63.47
2023-05-17T18:26:16.225Z,65.08
2023-05-17T18:28:43.201Z,64.87
2023-05-17T18:31:10.233Z,70.05
2023-05-17T18:33:36.724Z,72.09
2023-05-17T18:36:03.442Z,73.09
2023-05-17T18:38:29.967Z,75.60
2023-05-17T18:40:56.640Z,76.92
2023-05-17T18:43:23.184Z,78.90
2023-05-17T18:45:49.609Z,80.79
2023-05-17T18:48:16.162Z,81.52
2023-05-17T18:50:43.036Z,83.43
2023-05-17T18:53:09.897Z,83.93
2023-05-17T18:55:36.419Z,84.55
2023-05-17T18:58:02.961Z,88.32
2023-05-17T19:00:29.787Z,89.75
2023-05-17T19:02:56.536Z,90.35
2023-05-17T19:05:23.081Z,90.95
2023-05-17T19:07:49.591Z,91.13
2023-05-17T19:10:16.107Z,91.16
2023-05-17T19:12:45.467Z,91.36
2023-05-17T19:15:12.513Z,93.45
2023-05-17T19:17:39.019Z,95.95
2023-05-17T19:20:06.511Z,97.72
2023-05-17T19:22:33.081Z,98.68
2023-05-17T19:25:00.031Z,98.19
2023-05-17T19:27:27.427Z,98.41
2023-05-17T19:29:53.999Z,99.20
2023-05-17T19:32:22.610Z,99.29
2023-05-17T19:34:49.642Z,99.30
2023-05-17T19:37:16.227Z,98.92
2023-05-17T19:39:42.739Z,99.38
2023-05-17T19:42:09.302Z,98.02
2023-05-17T19:44:35.861Z,98.00
2023-05-17T19:47:02.321Z,98.25
2023-05-17T19:49:28.825Z,98.71
2023-05-17T19:52:00.438Z,97.45
2023-05-17T19:54:29.875Z,97.13
2023-05-17T19:56:57.055Z,97.63
2023-05-17T19:59:23.751Z,96.77
2023-05-17T20:01:51.147Z,96.89
2023-05-17T20:04:17.851Z,97.11
2023-05-17T20:06:44.621Z,97.02
2023-05-17T20:09:11.447Z,97.19
2023-05-17T20:11:38.063Z,97.07
2023-05-17T20:14:04.664Z,97.49
2023-05-17T20:16:31.316Z,97.45
2023-05-17T20:18:58.492Z,97.72
2023-05-17T20:21:26.222Z,97.70
2023-05-17T20:23:56.622Z,97.45
2023-05-17T20:26:26.037Z,97.42
2023-05-17T20:28:53.668Z,95.88
2023-05-17T20:31:20.518Z,94.90
2023-05-17T20:33:47.165Z,94.46
2023-05-17T20:36:14.567Z,94.37
2023-05-17T20:38:42.976Z,93.37
2023-05-17T20:41:11.050Z,93.67
2023-05-17T20:43:37.700Z,95.11
2023-05-17T20:46:07.570Z,97.23
2023-05-17T20:48:34.343Z,96.88
2023-05-17T20:51:01.981Z,96.74
2023-05-17T20:53:29.939Z,97.38
2023-05-17T20:55:57.245Z,98.42
2023-05-17T20:58:24.022Z,99.53
2023-05-17T21:00:52.762Z,98.96
2023-05-17T21:03:19.329Z,98.09
2023-05-17T21:05:45.965Z,97.93
2023-05-17T21:08:12.896Z,98.21
2023-05-17T21:10:42.540Z,98.45
2023-05-17T21:13:09.713Z,98.49
2023-05-17T21:15:36.633Z,100.00
2023-05-17T21:18:03.722Z,100.00
2023-05-17T21:20:31.119Z,100.00
2023-05-17T21:22:57.611Z,100.00
2023-05-17T21:25:24.156Z,100.00
2023-05-17T21:27:51.333Z,100.00
2023-05-17T21:30:17.880Z,100.00
2023-05-17T21:32:44.458Z,100.00
2023-05-17T21:35:11.141Z,100.00
2023-05-17T21:37:39.916Z,100.00
2023-05-17T21:40:07.498Z,100.00
2023-05-17T21:42:34.359Z,100.00
2023-05-17T21:45:01.147Z,100.00
2023-05-17T21:47:27.783Z,100.00
2023-05-17T21:49:54.763Z,100.00
2023-05-17T21:52:21.268Z,100.00
2023-05-17T21:54:47.939Z,100.00
2023-05-17T21:57:14.488Z,100.00
2023-05-17T21:59:41.020Z,100.00
2023-05-17T22:02:08.608Z,100.00
2023-05-17T22:04:35.304Z,100.00
2023-05-17T22:07:01.903Z,100.00
2023-05-17T22:09:28.394Z,100.00
2023-05-17T22:11:58.649Z,100.00
2023-05-17T22:14:25.860Z,100.00
2023-05-17T22:16:58.813Z,100.00
2023-05-17T22:19:25.788Z,100.00
2023-05-17T22:21:52.650Z,100.00
2023-05-17T22:24:20.233Z,100.00
2023-05-17T22:26:46.784Z,100.00
2023-05-17T22:29:13.314Z,100.00
2023-05-17T22:31:39.868Z,100.00
2023-05-17T22:34:06.687Z,100.00
2023-05-17T22:36:34.289Z,100.00
2023-05-17T22:39:00.784Z,100.00
2023-05-17T22:41:27.567Z,100.00
2023-05-17T22:43:54.078Z,100.00
2023-05-17T22:46:20.640Z,100.00
2023-05-17T22:48:47.215Z,100.00
2023-05-17T22:51:13.848Z,100.00
2023-05-17T22:53:40.364Z,100.00
2023-05-17T22:56:06.917Z,100.00
2023-05-17T22:58:33.408Z,100.00
2023-05-17T23:00:59.967Z,100.00
2023-05-17T23:03:26.523Z,100.00
2023-05-17T23:06:02.181Z,100.00
2023-05-17T23:08:30.081Z,100.00
2023-05-17T23:10:58.324Z,100.00
2023-05-17T23:13:26.103Z,100.00
2023-05-17T23:15:52.957Z,100.00
2023-05-17T23:18:19.634Z,100.00
2023-05-17T23:20:46.327Z,100.00
2023-05-17T23:23:16.012Z,100.00
2023-05-17T23:25:44.730Z,100.00
2023-05-17T23:28:11.462Z,100.00
2023-05-17T23:30:39.964Z,100.00
2023-05-17T23:33:06.783Z,100.00
2023-05-17T23:35:33.539Z,100.00
2023-05-17T23:38:00.257Z,100.00
2023-05-17T23:40:26.762Z,100.00
2023-05-17T23:42:53.266Z,100.00
2023-05-17T23:45:19.803Z,100.00
2023-05-17T23:47:47.547Z,100.00
2023-05-17T23:50:14.514Z,100.00
2023-05-17T23:52:41.046Z,100.00
2023-05-17T23:55:08.131Z,100.00
2023-05-17T23:57:35.363Z,100.00
